createdAt,value
2018-12-14T00:00:34.572Z,100479.05
2018-12-14T00:04:42.374Z,100483.50
2018-12-14T00:08:50.353Z,100481.17
2018-12-14T00:12:56.195Z,100484.13
2018-12-14T00:17:02.259Z,100479.32
2018-12-14T00:21:08.186Z,100477.53
2018-12-14T00:25:15.851Z,100483.70
2018-12-14T00:29:21.636Z,100484.33
2018-12-14T00:33:27.429Z,100487.95
2018-12-14T00:37:33.388Z,100491.05
2018-12-14T00:41:40.069Z,100490.39
2018-12-14T00:45:45.831Z,100499.05
2018-12-14T00:49:53.037Z,100490.70
2018-12-14T00:53:58.820Z,100488.37
2018-12-14T00:58:04.860Z,100491.76
2018-12-14T01:02:15.772Z,100481.75
2018-12-14T01:06:21.576Z,100490.83
2018-12-14T01:10:27.455Z,100498.64
2018-12-14T01:14:35.526Z,100502.28
2018-12-14T01:18:41.492Z,100497.55
2018-12-14T01:22:47.879Z,100501.17
2018-12-14T01:26:53.834Z,100498.03
2018-12-14T01:31:00.734Z,100503.27
2018-12-14T01:35:06.698Z,100509.64
2018-12-14T01:39:12.606Z,100509.27
2018-12-14T01:43:18.340Z,100516.35
2018-12-14T01:47:25.365Z,100516.01
2018-12-14T01:51:31.603Z,100509.22
2018-12-14T01:55:37.584Z,100506.19
2018-12-14T01:59:43.251Z,100509.73
2018-12-14T02:03:49.376Z,100505.73
2018-12-14T02:07:55.111Z,100500.77
2018-12-14T02:12:01.030Z,100503.71
2018-12-14T02:16:06.854Z,100499.02
2018-12-14T02:20:12.660Z,100488.97
2018-12-14T02:24:18.708Z,100493.74
2018-12-14T02:28:24.706Z,100488.55
2018-12-14T02:32:30.486Z,100489.83
2018-12-14T02:36:36.452Z,100488.70
2018-12-14T02:40:42.335Z,100483.56
2018-12-14T02:44:48.411Z,100484.58
2018-12-14T02:48:54.102Z,100479.78
2018-12-14T02:52:59.683Z,100483.05
2018-12-14T02:57:05.466Z,100479.22
2018-12-14T03:01:11.358Z,100485.22
2018-12-14T03:05:17.337Z,100484.07
2018-12-14T03:09:24.374Z,100487.67
2018-12-14T03:13:30.258Z,100488.48
2018-12-14T03:17:36.224Z,100490.48
2018-12-14T03:21:41.961Z,100481.58
2018-12-14T03:25:48.299Z,100492.39
2018-12-14T03:29:54.106Z,100490.34
2018-12-14T03:33:59.846Z,100489.13
2018-12-14T03:38:05.737Z,100493.97
2018-12-14T03:42:11.545Z,100490.27
2018-12-14T03:46:17.475Z,100484.86
2018-12-14T03:50:23.263Z,100489.85
2018-12-14T03:54:29.267Z,100489.17
2018-12-14T03:58:35.874Z,100485.95
2018-12-14T04:02:41.690Z,100495.27
2018-12-14T04:06:47.554Z,100495.06
2018-12-14T04:10:53.636Z,100492.80
2018-12-14T04:14:59.558Z,100494.95
2018-12-14T04:19:05.691Z,100489.13
2018-12-14T04:23:11.660Z,100489.62
2018-12-14T04:27:17.523Z,100489.26
2018-12-14T04:31:24.037Z,100489.03
2018-12-14T04:35:29.892Z,100486.31
2018-12-14T04:39:37.855Z,100489.70
2018-12-14T04:43:43.739Z,100485.52
2018-12-14T04:47:50.415Z,100482.83
2018-12-14T04:51:56.170Z,100477.92
2018-12-14T04:56:02.143Z,100480.45
2018-12-14T05:00:09.150Z,100476.48
2018-12-14T05:04:14.979Z,100487.91
2018-12-14T05:08:20.997Z,100491.35
2018-12-14T05:12:26.938Z,100494.12
2018-12-14T05:16:32.847Z,100492.73
2018-12-14T05:20:38.597Z,100489.34
2018-12-14T05:24:44.546Z,100500.09
2018-12-14T05:28:50.510Z,100500.11
2018-12-14T05:32:56.300Z,100506.45
2018-12-14T05:37:02.436Z,100510.23
2018-12-14T05:41:08.322Z,100507.64
2018-12-14T05:45:14.336Z,100515.28
2018-12-14T05:49:20.338Z,100515.42
2018-12-14T05:53:26.182Z,100520.08
2018-12-14T05:57:32.002Z,100515.13
2018-12-14T06:01:38.029Z,100517.45
2018-12-14T06:05:44.218Z,100514.08
2018-12-14T06:09:51.999Z,100524.48
2018-12-14T06:13:57.940Z,100517.54
2018-12-14T06:18:04.142Z,100523.66
2018-12-14T06:22:09.946Z,100518.27
2018-12-14T06:26:15.747Z,100516.94
2018-12-14T06:30:21.676Z,100527.00
2018-12-14T06:34:27.755Z,100532.08
2018-12-14T06:38:33.724Z,100532.94
2018-12-14T06:42:39.600Z,100541.87
2018-12-14T06:46:45.431Z,100537.75
2018-12-14T06:50:51.766Z,100541.72
2018-12-14T06:54:57.640Z,100552.19
2018-12-14T06:59:04.283Z,100554.31
2018-12-14T07:03:11.785Z,100560.94
2018-12-14T07:07:18.130Z,100564.56
2018-12-14T07:11:24.543Z,100572.19
2018-12-14T07:15:30.832Z,100576.41
2018-12-14T07:19:37.993Z,100581.70
2018-12-14T07:23:44.046Z,100583.86
2018-12-14T07:27:52.529Z,100597.94
2018-12-14T07:31:59.619Z,100594.37
2018-12-14T07:36:05.791Z,100603.44
2018-12-14T07:40:11.380Z,100608.89
2018-12-14T07:44:16.955Z,100617.20
2018-12-14T07:48:22.606Z,100616.53
2018-12-14T07:52:28.397Z,100611.34
2018-12-14T07:56:36.359Z,100614.52
2018-12-14T08:00:42.323Z,100620.60
2018-12-14T08:04:48.262Z,100624.92
2018-12-14T08:08:53.860Z,100627.34
2018-12-14T08:12:59.729Z,100632.88
2018-12-14T08:17:05.274Z,100617.04
2018-12-14T08:21:10.809Z,100640.41
2018-12-14T08:25:16.382Z,100643.81
2018-12-14T08:29:21.923Z,100646.24
2018-12-14T08:33:27.701Z,100648.34
2018-12-14T08:37:33.312Z,100651.05
2018-12-14T08:41:38.978Z,100656.94
2018-12-14T08:45:44.990Z,100661.02
2018-12-14T08:49:50.531Z,100662.94
2018-12-14T08:53:56.183Z,100666.61
2018-12-14T08:58:03.231Z,100671.93
2018-12-14T09:02:09.898Z,100677.09
2018-12-14T09:06:15.830Z,100692.48
2018-12-14T09:10:21.753Z,100692.70
2018-12-14T09:14:27.409Z,100695.69
2018-12-14T09:18:32.929Z,100701.02
2018-12-14T09:22:38.510Z,100703.12
2018-12-14T09:26:44.182Z,100702.89
2018-12-14T09:30:49.742Z,100705.72
2018-12-14T09:34:55.603Z,100706.29
2018-12-14T09:39:01.172Z,100703.00
2018-12-14T09:43:08.752Z,100696.37
2018-12-14T09:47:14.406Z,100695.40
2018-12-14T09:51:21.090Z,100704.42
2018-12-14T09:55:26.631Z,100699.48
2018-12-14T09:59:32.460Z,100692.42
2018-12-14T10:03:38.601Z,100693.72
2018-12-14T10:07:46.909Z,100695.60
2018-12-14T10:11:55.091Z,100696.13
2018-12-14T10:16:00.210Z,100706.79
2018-12-14T10:20:08.387Z,100702.83
2018-12-14T10:24:14.384Z,100701.57
2018-12-14T10:28:20.412Z,100708.37
2018-12-14T10:32:26.341Z,100699.09
2018-12-14T10:36:32.010Z,100693.77
2018-12-14T10:40:38.578Z,100696.27
2018-12-14T10:44:44.531Z,100693.05
2018-12-14T10:48:50.189Z,100693.44
2018-12-14T10:52:55.820Z,100689.35
2018-12-14T10:57:01.439Z,100693.96
2018-12-14T11:02:14.234Z,100691.92
2018-12-14T11:06:20.406Z,100693.59
2018-12-14T11:10:26.085Z,100694.30
2018-12-14T11:14:32.285Z,100695.58
2018-12-14T11:18:41.274Z,100689.81
2018-12-14T11:22:46.799Z,100693.89
2018-12-14T11:26:53.578Z,100695.38
2018-12-14T11:30:59.542Z,100699.72
2018-12-14T11:35:05.274Z,100692.03
2018-12-14T11:39:12.212Z,100694.73
2018-12-14T11:43:17.921Z,100686.08
2018-12-14T11:47:23.733Z,100693.48
2018-12-14T11:51:29.473Z,100697.68
2018-12-14T11:55:36.321Z,100697.74
2018-12-14T11:59:41.951Z,100688.80
2018-12-14T12:03:47.529Z,100687.55
2018-12-14T12:07:53.489Z,100687.04
2018-12-14T12:11:59.238Z,100682.86
2018-12-14T12:16:05.179Z,100686.12
2018-12-14T12:20:11.146Z,100679.28
2018-12-14T12:24:16.836Z,100678.27
2018-12-14T12:28:23.256Z,100679.69
2018-12-14T12:32:30.460Z,100671.88
2018-12-14T12:36:37.264Z,100671.21
2018-12-14T12:40:43.489Z,100673.69
2018-12-14T12:44:49.117Z,100675.50
2018-12-14T12:48:55.214Z,100676.59
2018-12-14T12:53:00.975Z,100687.03
2018-12-14T12:57:06.749Z,100687.10
2018-12-14T13:01:12.364Z,100688.17
2018-12-14T13:05:18.570Z,100681.88
2018-12-14T13:09:24.398Z,100686.89
2018-12-14T13:17:54.819Z,100691.89
2018-12-14T13:22:00.421Z,100702.66
2018-12-14T13:26:06.042Z,100699.22
2018-12-14T13:30:11.821Z,100706.55
2018-12-14T13:34:17.604Z,100709.45
2018-12-14T13:38:23.236Z,100717.67
2018-12-14T13:42:28.968Z,100713.06
2018-12-14T13:46:34.683Z,100712.77
2018-12-14T13:50:40.754Z,100714.92
2018-12-14T13:54:47.655Z,100721.76
2018-12-14T13:58:54.181Z,100719.06
2018-12-14T14:02:59.942Z,100736.31
2018-12-14T14:07:05.504Z,100738.11
2018-12-14T14:11:11.218Z,100738.23
2018-12-14T14:15:20.901Z,100744.38
2018-12-14T14:19:25.610Z,100750.20
2018-12-14T14:23:31.257Z,100757.86
2018-12-14T14:27:36.809Z,100758.51
2018-12-14T14:31:42.587Z,100762.31
2018-12-14T14:35:48.177Z,100761.27
2018-12-14T14:39:54.899Z,100769.34
2018-12-14T14:44:00.949Z,100780.36
2018-12-14T14:48:06.737Z,100786.80
2018-12-14T14:52:12.421Z,100784.14
2018-12-14T14:56:18.026Z,100786.69
2018-12-14T15:00:24.252Z,100789.66
2018-12-14T15:04:30.060Z,100799.07
2018-12-14T15:08:35.975Z,100795.17
2018-12-14T15:12:42.300Z,100800.56
2018-12-14T15:16:48.817Z,100807.56
2018-12-14T15:20:54.589Z,100803.97
2018-12-14T15:25:01.549Z,100817.67
2018-12-14T15:29:08.272Z,100821.38
2018-12-14T15:33:15.862Z,100825.89
2018-12-14T15:37:21.506Z,100826.39
2018-12-14T15:41:27.306Z,100832.72
2018-12-14T15:45:33.668Z,100844.35
2018-12-14T15:49:39.585Z,100848.55
2018-12-14T15:53:45.755Z,100850.00
2018-12-14T15:57:51.982Z,100845.90
2018-12-14T16:01:58.331Z,100848.70
2018-12-14T16:06:04.566Z,100854.38
2018-12-14T16:10:10.364Z,100855.05
2018-12-14T16:18:50.100Z,100850.92
2018-12-14T16:23:02.774Z,100854.00
2018-12-14T16:27:17.094Z,100857.70
2018-12-14T16:31:31.885Z,100864.33
2018-12-14T16:35:48.039Z,100858.58
2018-12-14T16:40:02.527Z,100867.83
2018-12-14T16:44:20.779Z,100873.34
2018-12-14T16:48:38.504Z,100875.50
2018-12-14T16:52:54.347Z,100871.89
2018-12-14T16:57:05.975Z,100874.38
2018-12-14T17:01:19.397Z,100875.35
2018-12-14T17:05:33.143Z,100878.45
2018-12-14T17:09:46.153Z,100881.05
2018-12-14T17:14:00.382Z,100891.40
2018-12-14T17:18:13.888Z,100899.30
2018-12-14T17:22:29.039Z,100907.27
2018-12-14T17:26:38.137Z,100904.41
2018-12-14T17:30:49.270Z,100911.42
2018-12-14T17:35:05.487Z,100918.88
2018-12-14T17:39:17.895Z,100920.00
2018-12-14T18:02:21.028Z,100908.41
2018-12-14T18:06:28.448Z,100913.68
2018-12-14T18:10:34.447Z,100916.21
2018-12-14T18:14:40.679Z,100924.94
2018-12-14T18:18:46.300Z,100927.27
2018-12-14T18:22:52.802Z,100924.34
2018-12-14T18:26:58.823Z,100931.80
2018-12-14T18:31:05.603Z,100934.63
2018-12-14T18:35:11.322Z,100936.69
2018-12-14T18:39:17.309Z,100946.80
2018-12-14T18:43:22.916Z,100950.44
2018-12-14T18:47:28.619Z,100958.45
2018-12-14T18:51:34.403Z,100962.33
2018-12-14T18:55:40.081Z,100968.86
2018-12-14T18:59:46.327Z,100966.89
2018-12-14T19:03:53.642Z,100981.22
2018-12-14T19:07:59.739Z,100978.12
2018-12-14T19:12:05.888Z,100990.23
2018-12-14T19:16:12.050Z,100992.29
2018-12-14T19:20:19.114Z,101003.22
2018-12-14T19:24:25.355Z,101000.95
2018-12-14T19:28:31.416Z,101009.05
2018-12-14T19:32:38.985Z,101013.16
2018-12-14T19:36:45.022Z,101013.63
2018-12-14T19:40:50.970Z,101019.67
2018-12-14T19:44:56.988Z,101017.84
2018-12-14T19:49:03.189Z,101030.91
2018-12-14T19:53:08.961Z,101021.56
2018-12-14T19:57:14.751Z,101021.91
2018-12-14T20:01:23.588Z,101022.45
2018-12-14T20:05:29.627Z,101026.39
2018-12-14T20:09:35.726Z,101021.02
2018-12-14T20:13:41.583Z,101015.89
2018-12-14T20:17:48.787Z,101015.45
2018-12-14T20:21:54.711Z,101004.55
2018-12-14T20:26:02.171Z,101017.25
2018-12-14T20:30:09.418Z,101024.14
2018-12-14T20:34:18.760Z,101019.20
2018-12-14T20:38:25.468Z,101017.47
2018-12-14T20:42:31.463Z,101023.48
2018-12-14T20:46:37.413Z,101022.34
2018-12-14T20:50:43.410Z,101021.75
2018-12-14T20:54:49.543Z,101023.66
2018-12-14T20:58:55.786Z,101020.62
2018-12-14T21:03:03.775Z,101026.84
2018-12-14T21:07:10.604Z,101023.17
2018-12-14T21:11:17.050Z,101028.06
2018-12-14T21:19:46.827Z,101030.37
2018-12-14T21:23:54.717Z,101032.27
2018-12-14T21:28:11.792Z,101031.25
2018-12-14T21:32:21.043Z,101026.47
2018-12-14T21:40:42.525Z,101008.33
2018-12-14T21:44:50.752Z,101008.52
2018-12-14T21:49:01.237Z,101006.03
2018-12-14T21:53:14.472Z,101005.11
2018-12-14T21:57:23.185Z,101005.11
2018-12-14T22:01:32.148Z,101003.42
2018-12-14T22:09:58.763Z,101003.98
2018-12-14T22:14:06.293Z,101000.12
2018-12-14T22:18:14.779Z,101007.22
2018-12-14T22:22:27.425Z,101001.97
2018-12-14T22:26:36.142Z,101007.22
2018-12-14T22:30:46.907Z,101011.39
2018-12-14T22:34:55.891Z,101003.97
2018-12-14T22:39:16.536Z,101007.56
2018-12-14T22:43:28.839Z,101006.73
2018-12-14T22:47:38.145Z,101012.55
2018-12-14T22:51:48.156Z,101001.77
2018-12-14T23:00:22.063Z,100998.68
2018-12-14T23:04:32.383Z,100998.94
2018-12-14T23:08:43.250Z,100998.41
2018-12-14T23:12:52.699Z,100997.09
2018-12-14T23:17:00.291Z,100990.91
2018-12-14T23:21:09.551Z,101000.12
2018-12-14T23:25:18.135Z,101002.77
2018-12-14T23:29:30.739Z,101002.63
2018-12-14T23:33:37.587Z,101000.41
2018-12-14T23:37:43.497Z,101000.58
2018-12-14T23:41:49.516Z,100997.09
2018-12-14T23:45:55.613Z,100996.83
2018-12-14T23:50:02.385Z,100995.86
2018-12-14T23:54:09.169Z,100998.67
2018-12-14T23:58:15.679Z,101001.71
